createdAt,value
2022-08-18T00:00:20.106Z,17.79
2022-08-18T00:02:56.685Z,17.78
2022-08-18T00:05:28.280Z,17.77
2022-08-18T00:07:57.020Z,17.79
2022-08-18T00:10:23.521Z,17.73
2022-08-18T00:12:50.246Z,17.76
2022-08-18T00:15:18.524Z,17.75
2022-08-18T00:17:45.857Z,17.76
2022-08-18T00:20:19.183Z,17.75
2022-08-18T00:22:45.972Z,17.75
2022-08-18T00:25:15.320Z,17.73
2022-08-18T00:27:41.834Z,17.74
2022-08-18T00:30:13.116Z,17.77
2022-08-18T00:32:43.741Z,17.68
2022-08-18T00:35:20.983Z,17.74
2022-08-18T00:37:49.142Z,17.72
2022-08-18T00:40:19.688Z,17.73
2022-08-18T00:42:50.819Z,17.62
2022-08-18T00:45:27.112Z,17.72
2022-08-18T00:47:54.722Z,17.72
2022-08-18T00:50:26.301Z,17.69
2022-08-18T00:52:59.135Z,17.67
2022-08-18T00:55:29.335Z,17.66
2022-08-18T00:58:01.788Z,17.56
2022-08-18T01:00:28.391Z,17.67
2022-08-18T01:02:58.991Z,17.65
2022-08-18T01:05:43.111Z,17.55
2022-08-18T01:08:14.270Z,17.63
2022-08-18T01:10:42.167Z,17.57
2022-08-18T01:13:09.204Z,17.54
2022-08-18T01:15:36.502Z,17.52
2022-08-18T01:18:29.195Z,17.48
2022-08-18T01:21:32.627Z,17.46
2022-08-18T01:24:02.422Z,17.41
2022-08-18T01:26:30.348Z,17.42
2022-08-18T01:29:05.220Z,17.22
2022-08-18T01:31:38.334Z,17.29
2022-08-18T01:34:10.169Z,17.35
2022-08-18T01:36:40.704Z,17.30
2022-08-18T01:39:11.989Z,17.23
2022-08-18T01:41:39.578Z,17.19
2022-08-18T01:44:11.179Z,17.11
2022-08-18T01:46:41.543Z,17.06
2022-08-18T01:49:10.265Z,16.99
2022-08-18T01:51:39.818Z,16.91
2022-08-18T01:54:10.454Z,16.93
2022-08-18T01:56:37.074Z,16.89
2022-08-18T01:59:05.292Z,16.88
2022-08-18T02:01:36.700Z,16.94
2022-08-18T02:04:33.390Z,16.94
2022-08-18T02:06:53.772Z,16.85
2022-08-18T02:09:24.225Z,16.80
2022-08-18T02:11:53.567Z,16.75
2022-08-18T02:14:27.371Z,16.77
2022-08-18T02:17:02.094Z,16.74
2022-08-18T02:19:34.371Z,16.51
2022-08-18T02:22:01.371Z,16.70
2022-08-18T02:24:27.873Z,16.65
2022-08-18T02:26:54.375Z,16.61
2022-08-18T02:29:20.851Z,16.60
2022-08-18T02:31:47.300Z,16.65
2022-08-18T02:34:15.641Z,16.71
2022-08-18T02:36:42.068Z,16.80
2022-08-18T02:39:08.482Z,16.82
2022-08-18T02:41:36.567Z,16.83
2022-08-18T02:44:04.847Z,16.83
2022-08-18T02:46:31.576Z,16.94
2022-08-18T02:48:59.966Z,16.96
2022-08-18T02:51:26.598Z,17.01
2022-08-18T02:53:54.135Z,17.03
2022-08-18T02:56:39.981Z,17.05
2022-08-18T02:59:11.594Z,17.06
2022-08-18T03:01:40.197Z,17.09
2022-08-18T03:04:08.666Z,17.12
2022-08-18T03:06:38.012Z,17.17
2022-08-18T03:09:09.555Z,17.00
2022-08-18T03:11:37.381Z,17.20
2022-08-18T03:14:05.521Z,17.20
2022-08-18T03:16:33.085Z,17.19
2022-08-18T03:19:02.595Z,17.22
2022-08-18T03:21:31.100Z,17.23
2022-08-18T03:24:00.728Z,17.28
2022-08-18T03:26:29.701Z,17.31
2022-08-18T03:28:56.757Z,17.28
2022-08-18T03:31:25.158Z,17.27
2022-08-18T03:33:56.070Z,17.30
2022-08-18T03:36:29.629Z,17.34
2022-08-18T03:38:57.022Z,17.32
2022-08-18T03:41:43.589Z,17.34
2022-08-18T03:44:14.412Z,17.36
2022-08-18T03:46:42.559Z,17.38
2022-08-18T03:49:09.570Z,17.34
2022-08-18T03:51:36.954Z,17.38
2022-08-18T03:54:05.800Z,17.42
2022-08-18T03:56:38.065Z,17.36
2022-08-18T03:59:14.782Z,17.45
2022-08-18T04:01:42.447Z,17.47
2022-08-18T04:04:12.535Z,17.49
2022-08-18T04:06:45.332Z,17.51
2022-08-18T04:09:14.850Z,17.55
2022-08-18T04:11:45.920Z,17.55
2022-08-18T04:14:21.618Z,17.52
2022-08-18T04:16:49.205Z,17.53
2022-08-18T04:19:26.891Z,17.55
2022-08-18T04:21:55.280Z,17.55
2022-08-18T04:24:21.762Z,17.54
2022-08-18T04:26:48.984Z,17.54
2022-08-18T04:29:18.163Z,17.53
2022-08-18T04:31:45.182Z,17.55
2022-08-18T04:34:12.407Z,17.54
2022-08-18T04:36:39.513Z,17.50
2022-08-18T04:39:09.655Z,17.45
2022-08-18T04:41:37.696Z,17.43
2022-08-18T04:44:07.269Z,17.45
2022-08-18T04:46:42.444Z,17.37
2022-08-18T04:49:10.578Z,17.51
2022-08-18T04:52:36.278Z,17.52
2022-08-18T04:54:28.992Z,17.53
2022-08-18T04:56:55.416Z,17.55
2022-08-18T04:59:21.834Z,17.56
2022-08-18T05:01:48.496Z,17.56
2022-08-18T05:04:17.383Z,17.54
2022-08-18T05:06:45.105Z,17.53
2022-08-18T05:09:16.649Z,17.48
2022-08-18T05:11:50.399Z,17.43
2022-08-18T05:14:17.721Z,17.45
2022-08-18T05:16:47.824Z,17.46
2022-08-18T05:19:19.795Z,17.39
2022-08-18T05:21:51.282Z,17.45
2022-08-18T05:24:19.129Z,17.45
2022-08-18T05:26:46.011Z,17.45
2022-08-18T05:29:19.131Z,17.40
2022-08-18T05:31:47.788Z,17.35
2022-08-18T05:34:14.490Z,17.36
2022-08-18T05:36:59.079Z,17.36
2022-08-18T05:39:35.894Z,17.37
2022-08-18T05:42:09.376Z,17.36
2022-08-18T05:44:42.757Z,17.39
2022-08-18T05:47:19.511Z,17.43
2022-08-18T05:49:49.087Z,17.45
2022-08-18T05:52:22.128Z,17.45
2022-08-18T05:55:11.009Z,17.52
2022-08-18T05:57:44.839Z,17.59
2022-08-18T06:00:12.314Z,17.64
2022-08-18T06:02:56.877Z,17.68
2022-08-18T06:05:49.611Z,17.66
2022-08-18T06:08:18.475Z,17.76
2022-08-18T06:10:48.784Z,17.85
2022-08-18T06:13:15.338Z,17.91
2022-08-18T06:15:54.880Z,17.75
2022-08-18T06:18:40.126Z,17.84
2022-08-18T06:21:12.866Z,17.89
2022-08-18T06:23:48.807Z,17.94
2022-08-18T06:26:29.032Z,18.12
2022-08-18T06:29:34.532Z,18.30
2022-08-18T06:32:10.152Z,18.24
2022-08-18T06:35:02.751Z,18.22
2022-08-18T06:38:05.733Z,18.13
2022-08-18T06:40:32.154Z,18.30
2022-08-18T06:43:02.160Z,18.39
2022-08-18T06:45:36.637Z,18.46
2022-08-18T06:48:18.539Z,18.44
2022-08-18T06:50:52.780Z,18.65
2022-08-18T06:53:27.859Z,18.80
2022-08-18T06:55:55.346Z,18.84
2022-08-18T06:58:27.681Z,18.84
2022-08-18T07:00:56.123Z,18.82
2022-08-18T07:03:40.990Z,18.83
2022-08-18T07:06:18.518Z,18.85
2022-08-18T07:08:46.050Z,19.00
2022-08-18T07:11:33.046Z,19.18
2022-08-18T07:14:21.051Z,19.18
2022-08-18T07:16:58.723Z,19.29
2022-08-18T07:19:29.864Z,19.57
2022-08-18T07:22:10.211Z,19.65
2022-08-18T07:24:54.254Z,19.64
2022-08-18T07:27:45.370Z,19.63
2022-08-18T07:30:22.242Z,19.61
2022-08-18T07:33:02.246Z,19.38
2022-08-18T07:35:39.181Z,19.37
2022-08-18T07:38:24.573Z,19.39
2022-08-18T07:41:22.798Z,19.31
2022-08-18T07:43:51.260Z,19.30
2022-08-18T07:46:29.505Z,19.32
2022-08-18T07:48:58.715Z,19.31
2022-08-18T07:51:52.130Z,19.35
2022-08-18T07:54:48.376Z,19.51
2022-08-18T07:57:44.754Z,19.67
2022-08-18T08:00:57.481Z,19.87
2022-08-18T08:03:43.537Z,19.88
2022-08-18T08:06:20.371Z,19.90
2022-08-18T08:08:52.392Z,20.01
2022-08-18T08:11:27.992Z,20.21
2022-08-18T08:13:56.220Z,20.37
2022-08-18T08:16:44.462Z,20.40
2022-08-18T08:19:36.520Z,20.55
2022-08-18T08:22:16.904Z,20.71
2022-08-18T08:24:54.278Z,20.80
2022-08-18T08:27:42.364Z,21.01
2022-08-18T08:30:16.597Z,21.06
2022-08-18T08:33:05.950Z,21.10
2022-08-18T08:35:48.475Z,21.13
2022-08-18T08:38:44.605Z,21.25
2022-08-18T08:41:19.912Z,21.34
2022-08-18T08:43:53.348Z,21.35
2022-08-18T08:46:29.991Z,21.53
2022-08-18T08:49:03.323Z,21.58
2022-08-18T08:51:43.179Z,21.69
2022-08-18T08:54:17.263Z,21.75
2022-08-18T08:56:47.795Z,21.72
2022-08-18T08:59:19.438Z,21.73
2022-08-18T09:02:27.062Z,21.72
2022-08-18T09:05:14.511Z,21.77
2022-08-18T09:08:03.195Z,21.93
2022-08-18T09:10:46.006Z,22.09
2022-08-18T09:13:41.924Z,22.17
2022-08-18T09:16:36.113Z,22.29
2022-08-18T09:19:30.634Z,22.42
2022-08-18T09:22:22.319Z,22.45
2022-08-18T09:24:52.794Z,22.51
2022-08-18T09:28:09.972Z,22.38
2022-08-18T09:34:11.500Z,22.15
2022-08-18T09:36:43.622Z,22.26
2022-08-18T09:39:53.855Z,22.25
2022-08-18T09:42:49.948Z,22.23
2022-08-18T09:45:33.595Z,22.32
2022-08-18T09:48:08.838Z,22.24
2022-08-18T09:51:01.507Z,22.33
2022-08-18T09:53:53.834Z,22.60
2022-08-18T09:59:37.293Z,23.09
2022-08-18T10:02:14.209Z,23.10
2022-08-18T10:04:50.958Z,23.17
2022-08-18T10:07:37.029Z,23.31
2022-08-18T10:10:59.486Z,23.24
2022-08-18T10:13:54.120Z,23.13
2022-08-18T10:16:38.263Z,23.08
2022-08-18T10:19:39.862Z,22.89
2022-08-18T10:22:09.569Z,22.98
2022-08-18T10:25:22.206Z,22.92
2022-08-18T10:27:56.578Z,23.07
2022-08-18T10:30:56.800Z,23.36
2022-08-18T10:34:19.272Z,23.59
2022-08-18T10:36:53.059Z,23.65
2022-08-18T10:39:27.538Z,23.74
2022-08-18T10:42:23.331Z,23.73
2022-08-18T10:45:09.954Z,23.79
2022-08-18T10:47:37.012Z,23.82
2022-08-18T10:50:09.236Z,23.79
2022-08-18T10:53:10.137Z,23.85
2022-08-18T10:56:09.286Z,23.73
2022-08-18T10:59:06.528Z,23.70
2022-08-18T11:02:02.571Z,23.75
2022-08-18T11:04:38.774Z,23.93
2022-08-18T11:07:19.728Z,24.08
2022-08-18T11:09:57.123Z,24.10
2022-08-18T11:12:45.425Z,24.14
2022-08-18T11:15:27.036Z,24.01
2022-08-18T11:18:18.905Z,24.06
2022-08-18T11:20:47.382Z,24.24
2022-08-18T11:23:17.019Z,24.36
2022-08-18T11:25:44.836Z,24.35
2022-08-18T11:28:18.418Z,24.19
2022-08-18T11:30:47.716Z,23.97
2022-08-18T11:33:23.024Z,23.74
2022-08-18T11:36:01.473Z,23.54
2022-08-18T11:38:29.591Z,23.39
2022-08-18T11:41:17.215Z,23.29
2022-08-18T11:43:47.579Z,23.52
2022-08-18T11:46:31.944Z,23.83
2022-08-18T11:49:01.195Z,23.96
2022-08-18T11:51:33.556Z,24.10
2022-08-18T11:54:24.917Z,24.30
2022-08-18T11:56:51.891Z,24.20
2022-08-18T11:59:52.481Z,23.89
2022-08-18T12:02:20.593Z,23.95
2022-08-18T12:04:55.062Z,24.08
2022-08-18T12:07:33.915Z,24.18
2022-08-18T12:10:28.671Z,24.33
2022-08-18T12:13:00.289Z,24.25
2022-08-18T12:18:18.812Z,24.12
2022-08-18T12:20:54.566Z,24.18
2022-08-18T12:23:21.667Z,24.33
2022-08-18T12:25:48.119Z,24.46
2022-08-18T12:28:19.268Z,24.66
2022-08-18T12:30:48.659Z,24.63
2022-08-18T12:33:25.505Z,24.41
2022-08-18T12:36:01.359Z,24.19
2022-08-18T12:38:32.526Z,23.88
2022-08-18T12:41:03.332Z,23.62
2022-08-18T12:46:16.276Z,23.15
2022-08-18T12:48:42.708Z,22.99
2022-08-18T12:51:10.039Z,22.86
2022-08-18T12:53:57.821Z,22.74
2022-08-18T12:56:30.429Z,22.66
2022-08-18T12:59:00.194Z,22.63
2022-08-18T13:01:27.429Z,22.63
2022-08-18T13:07:00.635Z,22.58
2022-08-18T13:09:34.640Z,22.56
2022-08-18T13:12:18.459Z,22.54
2022-08-18T13:14:46.575Z,22.50
2022-08-18T13:17:29.798Z,22.53
2022-08-18T13:20:00.460Z,22.52
2022-08-18T13:22:31.914Z,22.49
2022-08-18T13:25:01.956Z,22.45
2022-08-18T13:27:33.154Z,22.50
2022-08-18T13:30:29.888Z,22.58
2022-08-18T13:32:59.618Z,22.64
2022-08-18T13:35:29.913Z,22.63
2022-08-18T13:38:06.551Z,22.63
2022-08-18T13:40:47.523Z,22.59
2022-08-18T13:43:17.501Z,22.61
2022-08-18T13:45:46.803Z,22.58
2022-08-18T13:48:14.546Z,22.56
2022-08-18T13:50:41.747Z,22.55
2022-08-18T13:53:18.531Z,22.55
2022-08-18T13:55:46.503Z,22.55
2022-08-18T13:58:20.978Z,22.67
2022-08-18T14:00:52.395Z,22.71
2022-08-18T14:03:38.514Z,22.82
2022-08-18T14:06:09.478Z,22.87
2022-08-18T14:08:39.646Z,23.01
2022-08-18T14:11:06.940Z,22.99
2022-08-18T14:13:38.200Z,22.95
2022-08-18T14:16:10.620Z,22.82
2022-08-18T14:18:37.136Z,22.80
2022-08-18T14:21:24.274Z,22.82
2022-08-18T14:24:10.314Z,22.78
2022-08-18T14:26:50.210Z,22.87
2022-08-18T14:29:47.249Z,22.69
2022-08-18T14:32:07.085Z,22.86
2022-08-18T14:34:33.509Z,22.74
2022-08-18T14:36:59.944Z,22.69
2022-08-18T14:39:27.553Z,22.58
2022-08-18T14:41:56.225Z,22.47
2022-08-18T14:44:23.938Z,22.48
2022-08-18T14:46:52.232Z,22.49
2022-08-18T14:49:29.391Z,22.44
2022-08-18T14:51:57.900Z,22.41
2022-08-18T14:54:28.283Z,22.41
2022-08-18T14:56:55.431Z,22.37
2022-08-18T14:59:23.183Z,22.29
2022-08-18T15:01:49.749Z,22.32
2022-08-18T15:04:18.548Z,22.29
2022-08-18T15:06:45.986Z,22.25
2022-08-18T15:09:23.242Z,22.28
2022-08-18T15:11:51.069Z,22.24
2022-08-18T15:14:18.889Z,22.28
2022-08-18T15:16:47.283Z,22.25
2022-08-18T15:19:59.328Z,22.19
2022-08-18T15:22:18.877Z,22.17
2022-08-18T15:25:03.819Z,22.12
2022-08-18T15:27:42.795Z,22.02
2022-08-18T15:30:19.474Z,22.13
2022-08-18T15:32:49.921Z,22.09
2022-08-18T15:35:17.605Z,22.12
2022-08-18T15:37:51.285Z,22.15
2022-08-18T15:40:35.745Z,22.11
2022-08-18T15:43:09.835Z,22.15
2022-08-18T15:45:43.364Z,22.18
2022-08-18T15:48:24.422Z,22.07
2022-08-18T15:50:52.060Z,22.09
2022-08-18T15:53:23.274Z,22.06
2022-08-18T15:55:50.126Z,22.18
2022-08-18T15:58:18.211Z,22.18
2022-08-18T16:00:50.630Z,22.16
2022-08-18T16:03:18.115Z,22.11
2022-08-18T16:05:52.525Z,22.03
2022-08-18T16:08:21.634Z,22.01
2022-08-18T16:10:48.238Z,22.00
2022-08-18T16:13:14.866Z,21.91
2022-08-18T16:15:46.618Z,21.91
2022-08-18T16:18:13.720Z,21.85
2022-08-18T16:20:40.282Z,21.84
2022-08-18T16:23:07.558Z,21.85
2022-08-18T16:25:34.162Z,21.85
2022-08-18T16:28:01.403Z,21.85
2022-08-18T16:30:29.080Z,21.78
2022-08-18T16:32:55.811Z,21.71
2022-08-18T16:35:23.528Z,21.70
2022-08-18T16:37:50.519Z,21.72
2022-08-18T16:40:19.267Z,21.72
2022-08-18T16:42:46.904Z,21.70
2022-08-18T16:45:15.625Z,21.67
2022-08-18T16:47:42.168Z,21.69
2022-08-18T16:50:13.205Z,21.66
2022-08-18T16:52:40.439Z,21.65
2022-08-18T16:55:09.023Z,21.64
2022-08-18T16:57:57.638Z,21.55
2022-08-18T17:00:44.038Z,21.55
2022-08-18T17:03:29.988Z,21.57
2022-08-18T17:06:05.478Z,21.48
2022-08-18T17:08:35.592Z,21.60
2022-08-18T17:11:06.936Z,21.60
2022-08-18T17:13:33.378Z,21.61
2022-08-18T17:16:00.045Z,21.62
2022-08-18T17:18:27.460Z,21.57
2022-08-18T17:20:55.535Z,21.54
2022-08-18T17:23:22.399Z,21.50
2022-08-18T17:25:49.782Z,21.48
2022-08-18T17:28:23.030Z,21.50
2022-08-18T17:30:53.137Z,21.44
2022-08-18T17:33:26.962Z,21.42
2022-08-18T17:35:56.009Z,21.43
2022-08-18T17:38:32.569Z,21.38
2022-08-18T17:40:59.634Z,21.28
2022-08-18T17:43:30.184Z,21.30
2022-08-18T17:46:15.014Z,21.28
2022-08-18T17:48:47.697Z,21.26
2022-08-18T17:51:35.096Z,21.21
2022-08-18T17:54:08.354Z,21.21
2022-08-18T17:56:43.398Z,21.18
2022-08-18T17:59:45.577Z,21.16
2022-08-18T18:02:29.968Z,21.13
2022-08-18T18:04:59.181Z,21.09
2022-08-18T18:07:38.522Z,21.09
2022-08-18T18:10:11.565Z,21.03
2022-08-18T18:12:38.993Z,21.05
2022-08-18T18:15:09.597Z,21.01
2022-08-18T18:17:39.814Z,20.98
2022-08-18T18:20:24.840Z,20.99
2022-08-18T18:22:52.231Z,20.97
2022-08-18T18:28:01.540Z,20.86
2022-08-18T18:30:32.719Z,20.81
2022-08-18T18:33:14.951Z,20.77
2022-08-18T18:35:54.343Z,20.74
2022-08-18T18:38:30.409Z,20.59
2022-08-18T18:41:04.031Z,20.68
2022-08-18T18:43:33.405Z,20.62
2022-08-18T18:46:12.724Z,20.54
2022-08-18T18:48:52.208Z,20.47
2022-08-18T18:51:35.888Z,20.45
2022-08-18T18:54:20.831Z,20.39
2022-08-18T18:56:51.994Z,20.35
2022-08-18T18:59:48.970Z,20.36
2022-08-18T19:02:47.234Z,20.31
2022-08-18T19:05:31.939Z,20.23
2022-08-18T19:08:24.069Z,20.15
2022-08-18T19:10:53.415Z,20.10
2022-08-18T19:13:31.783Z,20.11
2022-08-18T19:16:09.649Z,20.11
2022-08-18T19:18:57.993Z,19.99
2022-08-18T19:22:03.383Z,19.92
2022-08-18T19:24:22.495Z,19.89
2022-08-18T19:26:54.547Z,19.87
2022-08-18T19:29:27.845Z,19.84
2022-08-18T19:32:17.053Z,19.85
2022-08-18T19:34:51.457Z,19.87
2022-08-18T19:37:31.287Z,19.77
2022-08-18T19:40:04.555Z,19.83
2022-08-18T19:42:39.153Z,19.83
2022-08-18T19:45:17.619Z,19.82
2022-08-18T19:48:00.390Z,19.78
2022-08-18T19:50:33.546Z,19.74
2022-08-18T19:53:12.256Z,19.61
2022-08-18T19:55:51.042Z,19.48
2022-08-18T19:58:23.215Z,19.37
2022-08-18T20:00:57.753Z,19.31
2022-08-18T20:04:02.769Z,19.39
2022-08-18T20:06:49.908Z,19.44
2022-08-18T20:09:41.172Z,19.47
2022-08-18T20:12:22.137Z,19.47
2022-08-18T20:15:08.419Z,19.40
2022-08-18T20:17:57.457Z,19.37
2022-08-18T20:20:27.419Z,19.35
2022-08-18T20:22:57.301Z,19.30
2022-08-18T20:25:23.953Z,19.32
2022-08-18T20:27:59.484Z,19.29
2022-08-18T20:30:50.631Z,19.11
2022-08-18T20:33:22.836Z,19.03
2022-08-18T20:36:03.321Z,18.94
2022-08-18T20:38:36.858Z,18.78
2022-08-18T20:41:23.196Z,18.85
2022-08-18T20:43:53.947Z,18.77
2022-08-18T20:46:54.571Z,18.73
2022-08-18T20:49:24.117Z,18.69
2022-08-18T20:52:04.176Z,18.68
2022-08-18T20:54:58.210Z,18.66
2022-08-18T20:57:27.362Z,18.73
2022-08-18T21:00:02.617Z,18.67
2022-08-18T21:02:35.027Z,18.44
2022-08-18T21:05:02.063Z,18.58
2022-08-18T21:07:37.106Z,18.52
2022-08-18T21:10:13.521Z,18.47
2022-08-18T21:12:52.591Z,18.32
2022-08-18T21:15:21.050Z,18.35
2022-08-18T21:17:59.967Z,18.31
2022-08-18T21:20:27.262Z,18.31
2022-08-18T21:23:04.026Z,18.28
2022-08-18T21:25:32.487Z,18.22
2022-08-18T21:28:00.310Z,18.29
2022-08-18T21:30:26.980Z,18.30
2022-08-18T21:32:53.971Z,18.29
2022-08-18T21:35:32.269Z,18.25
2022-08-18T21:37:58.605Z,18.23
2022-08-18T21:40:39.269Z,18.27
2022-08-18T21:43:07.892Z,18.21
2022-08-18T21:45:47.474Z,18.19
2022-08-18T21:48:14.755Z,18.19
2022-08-18T21:50:50.467Z,18.13
2022-08-18T21:53:28.091Z,17.99
2022-08-18T21:55:57.277Z,18.15
2022-08-18T21:58:39.571Z,18.19
2022-08-18T22:01:20.665Z,18.20
2022-08-18T22:03:59.621Z,18.18
2022-08-18T22:06:40.553Z,18.00
2022-08-18T22:09:28.396Z,18.22
2022-08-18T22:12:52.123Z,18.22
2022-08-18T22:15:20.868Z,18.22
2022-08-18T22:17:48.282Z,18.23
2022-08-18T22:20:54.392Z,18.21
2022-08-18T22:23:46.173Z,18.14
2022-08-18T22:26:16.815Z,18.10
2022-08-18T22:29:21.017Z,18.09
2022-08-18T22:31:53.389Z,18.05
2022-08-18T22:34:28.330Z,18.00
2022-08-18T22:37:12.452Z,17.82
2022-08-18T22:39:46.391Z,17.82
2022-08-18T22:42:14.443Z,17.76
2022-08-18T22:44:42.122Z,17.68
2022-08-18T22:47:09.151Z,17.70
2022-08-18T22:49:37.047Z,17.64
2022-08-18T22:52:07.241Z,17.63
2022-08-18T22:54:34.942Z,17.59
2022-08-18T22:57:02.503Z,17.53
2022-08-18T22:59:29.522Z,17.54
2022-08-18T23:01:59.759Z,17.59
2022-08-18T23:04:26.648Z,17.61
2022-08-18T23:06:54.799Z,17.33
2022-08-18T23:09:27.866Z,17.53
2022-08-18T23:12:02.226Z,17.64
2022-08-18T23:14:32.895Z,17.59
2022-08-18T23:17:01.802Z,17.68
2022-08-18T23:19:31.430Z,17.66
2022-08-18T23:21:59.882Z,17.64
2022-08-18T23:24:26.974Z,17.61
2022-08-18T23:26:53.459Z,17.52
2022-08-18T23:29:21.439Z,17.55
2022-08-18T23:31:49.543Z,17.50
2022-08-18T23:34:18.872Z,17.49
2022-08-18T23:36:51.242Z,17.58
2022-08-18T23:39:17.896Z,17.50
2022-08-18T23:41:44.984Z,17.52
2022-08-18T23:44:12.854Z,17.49
2022-08-18T23:46:39.997Z,17.55
2022-08-18T23:49:07.682Z,17.62
2022-08-18T23:51:44.112Z,17.65
2022-08-18T23:54:13.989Z,17.56
2022-08-18T23:56:40.465Z,17.66
2022-08-18T23:59:08.185Z,17.63
